Time;durP1;ratioP1;P1;durP2;ratioP2;P2;SDS_P1;SDS_P2;PMS_P1;PMS_P2;Temp;Humidity;BMP_temperature;BMP_pressure;BME280_temperature;BME280_humidity;BME280_pressure;Samples;Min_cycle;Max_cycle;Signal;HPM_P1;HPM_P2
2021/04/07 00:01:43;;;;;;;55.28;26.38;;;;;;;5.76;74.20;98677.16;5047338;28;20067;-22
2021/04/07 00:04:08;;;;;;;59.35;30.85;;;;;;;6.13;74.95;98672.69;5047010;28;20178;-21
2021/04/07 00:06:35;;;;;;;61.28;31.27;;;;;;;6.02;74.65;98660.19;5047485;28;20897;-23
2021/04/07 00:09:03;;;;;;;95.60;33.28;;;;;;;6.64;73.54;98659.94;5029419;28;20021;-22
2021/04/07 00:11:29;;;;;;;68.65;32.33;;;;;;;6.82;72.74;98659.88;5029376;28;20028;-21
2021/04/07 00:13:55;;;;;;;75.53;32.55;;;;;;;6.32;74.63;98652.25;5029796;28;20037;-23
2021/04/07 00:16:21;;;;;;;73.10;35.47;;;;;;;6.41;73.91;98637.66;5045995;28;20108;-23
2021/04/07 00:18:47;;;;;;;68.43;34.95;;;;;;;6.66;73.73;98654.41;5029233;28;20035;-22
2021/04/07 00:21:12;;;;;;;67.78;34.45;;;;;;;6.42;73.82;98644.56;5047166;28;20029;-23
2021/04/07 00:23:38;;;;;;;70.97;34.08;;;;;;;6.66;73.37;98649.94;5047122;28;20385;-23
2021/04/07 00:26:03;;;;;;;70.80;34.40;;;;;;;7.04;71.27;98651.34;5047010;28;20028;-22
2021/04/07 00:28:29;;;;;;;67.43;31.75;;;;;;;6.72;72.95;98643.72;5046608;28;20032;-23
2021/04/07 00:30:54;;;;;;;170.70;87.65;;;;;;;6.89;72.65;98627.16;5046914;28;20083;-23
2021/04/07 00:33:20;;;;;;;108.10;35.33;;;;;;;6.25;74.17;98619.75;5046928;28;20192;-22
2021/04/07 00:35:45;;;;;;;109.05;44.47;;;;;;;6.41;74.14;98620.97;5029328;28;20152;-21
2021/04/07 00:38:11;;;;;;;88.85;39.00;;;;;;;6.36;74.85;98619.00;5046876;28;20029;-22
2021/04/07 00:40:37;;;;;;;113.57;39.95;;;;;;;6.70;73.31;98624.59;5046736;28;20025;-23
2021/04/07 00:43:03;;;;;;;68.75;34.50;;;;;;;6.51;73.71;98609.81;5046908;28;20035;-24
2021/04/07 00:45:28;;;;;;;82.25;35.38;;;;;;;6.64;73.20;98618.38;5046756;28;20501;-23
2021/04/07 00:47:54;;;;;;;81.53;36.53;;;;;;;7.23;69.85;98618.38;5046415;28;20044;-21
2021/04/07 00:50:21;;;;;;;76.97;41.90;;;;;;;6.71;71.10;98615.59;5025250;28;20115;-22
2021/04/07 00:52:47;;;;;;;89.05;51.80;;;;;;;6.53;71.63;98629.72;5027589;28;20499;-26
2021/04/07 00:55:13;;;;;;;64.00;34.58;;;;;;;6.53;71.20;98623.63;5025794;28;20136;-23
2021/04/07 00:57:41;;;;;;;62.95;32.58;;;;;;;5.74;73.73;98606.00;5026753;28;20405;-23
2021/04/07 01:00:08;;;;;;;;;;;;;;;5.57;75.09;98616.34;5009596;28;20143;-22
2021/04/07 01:02:33;;;;;;;60.47;29.92;;;;;;;6.18;72.23;98609.28;5026821;28;19917;-23
2021/04/07 01:04:59;;;;;;;70.05;36.45;;;;;;;5.98;72.93;98577.81;5026769;28;20073;-23
2021/04/07 01:07:24;;;;;;;78.68;38.80;;;;;;;6.66;70.06;98607.56;5025359;28;20445;-23
2021/04/07 01:09:50;;;;;;;65.97;35.28;;;;;;;6.37;70.55;98583.53;5025574;28;20029;-23
2021/04/07 01:12:15;;;;;;;61.22;34.15;;;;;;;6.06;71.05;98595.22;5026376;28;20029;-23
2021/04/07 01:14:41;;;;;;;53.33;31.65;;;;;;;5.71;73.11;98597.69;5026767;28;20033;-23
2021/04/07 01:17:07;;;;;;;52.15;32.58;;;;;;;5.63;72.77;98607.53;5025295;28;20033;-23
2021/04/07 01:19:32;;;;;;;55.92;34.95;;;;;;;5.85;72.37;98596.50;5026626;28;20489;-23
2021/04/07 01:21:58;;;;;;;52.33;33.92;;;;;;;5.47;73.68;98573.75;5026757;28;20089;-22
2021/04/07 01:24:24;;;;;;;56.05;35.55;;;;;;;5.40;73.93;98588.91;5025370;28;20018;-23
2021/04/07 01:26:50;;;;;;;56.30;34.47;;;;;;;5.43;73.72;98588.47;5027036;28;20096;-23
2021/04/07 01:29:15;;;;;;;50.08;33.85;;;;;;;5.58;73.18;98591.53;5028990;28;20038;-23
2021/04/07 01:31:52;;;;;;;56.00;33.67;;;;;;;5.43;73.57;98577.88;5030139;28;20155;-22
2021/04/07 01:34:29;;;;;;;49.38;31.63;;;;;;;5.10;73.55;98589.63;5029727;28;20444;-23
2021/04/07 01:36:56;;;;;;;49.75;32.63;;;;;;;5.19;73.91;98588.34;5030030;28;20562;-23
2021/04/07 01:39:22;;;;;;;52.20;33.67;;;;;;;5.58;72.31;98586.25;5030015;28;20033;-23
2021/04/07 01:41:48;;;;;;;48.65;32.17;;;;;;;5.96;69.77;98585.16;5030179;28;20037;-22
2021/04/07 01:44:14;;;;;;;50.67;32.58;;;;;;;5.35;71.08;98596.69;5029647;28;20049;-22
2021/04/07 01:46:39;;;;;;;47.25;28.40;;;;;;;4.36;73.50;98578.13;5028961;28;20841;-23
2021/04/07 01:49:07;;;;;;;115.70;29.95;;;;;;;4.11;74.15;98604.50;5033695;28;20096;-23
2021/04/07 01:51:33;;;;;;;75.18;28.52;;;;;;;4.37;73.07;98595.56;5032173;28;20024;-23
2021/04/07 01:53:59;;;;;;;105.13;28.25;;;;;;;4.78;71.57;98600.31;5031841;28;20036;-23
2021/04/07 01:56:25;;;;;;;64.95;26.17;;;;;;;4.64;72.55;98590.91;5049677;28;20029;-23
2021/04/07 01:58:57;;;;;;;92.53;26.27;;;;;;;4.26;73.89;98609.47;5049539;28;20048;-23
2021/04/07 02:01:23;;;;;;;53.13;26.20;;;;;;;4.16;74.63;98599.38;5049689;28;20033;-22
2021/04/07 02:03:48;;;;;;;44.47;24.92;;;;;;;4.05;74.87;98592.97;5049677;28;20797;-23
2021/04/07 02:06:14;;;;;;;50.70;27.20;;;;;;;4.31;75.29;98602.53;5049112;28;20083;-23
2021/04/07 02:08:39;;;;;;;76.47;29.23;;;;;;;4.65;74.50;98603.06;5031490;28;20090;-23
2021/04/07 02:11:05;;;;;;;68.05;29.60;;;;;;;4.79;74.31;98591.34;5014902;28;20036;-23
2021/04/07 02:13:31;;;;;;;86.28;30.73;;;;;;;4.26;76.25;98594.44;5049321;28;20104;-23
2021/04/07 02:15:56;;;;;;;82.18;29.15;;;;;;;4.80;75.78;98603.56;5049623;28;20033;-23
2021/04/07 02:18:22;;;;;;;75.00;32.22;;;;;;;5.03;74.38;98599.47;5048861;28;20451;-23
2021/04/07 02:20:47;;;;;;;67.53;30.27;;;;;;;5.26;73.44;98582.16;5049208;28;20574;-23
2021/04/07 02:23:13;;;;;;;83.78;29.42;;;;;;;5.17;73.09;98584.28;5049551;28;20473;-23
2021/04/07 02:25:38;;;;;;;65.30;26.77;;;;;;;5.05;73.93;98576.28;5049368;28;20864;-23
2021/04/07 02:28:04;;;;;;;73.20;27.70;;;;;;;4.38;76.21;98581.34;5048932;28;20432;-23
2021/04/07 02:30:30;;;;;;;84.53;32.42;;;;;;;5.00;74.17;98591.97;5014771;28;20405;-23
2021/04/07 02:32:56;;;;;;;55.80;29.38;;;;;;;5.05;72.66;98589.50;5048892;28;20036;-23
2021/04/07 02:35:21;;;;;;;57.38;27.73;;;;;;;4.30;75.56;98587.69;5048738;28;20409;-23
2021/04/07 02:37:47;;;;;;;50.97;28.50;;;;;;;4.25;76.18;98584.09;5049005;28;20086;-22
2021/04/07 02:40:13;;;;;;;69.00;31.95;;;;;;;4.18;76.34;98599.97;5047900;28;20120;-23
2021/04/07 02:42:38;;;;;;;113.60;31.52;;;;;;;4.09;77.32;98603.91;5048566;28;20025;-23
2021/04/07 02:45:05;;;;;;;67.97;29.80;;;;;;;3.97;77.37;98591.38;5048800;28;20044;-23
2021/04/07 02:47:30;;;;;;;129.60;32.08;;;;;;;4.38;76.37;98582.16;5048865;28;20723;-23
2021/04/07 02:49:57;;;;;;;121.07;29.15;;;;;;;4.37;76.11;98601.69;5048106;28;20061;-23
2021/04/07 02:52:22;;;;;;;74.50;28.67;;;;;;;4.67;74.58;98605.50;5048607;28;20401;-23
2021/04/07 02:54:48;;;;;;;91.88;28.25;;;;;;;4.65;74.37;98592.50;5048600;28;20480;-23
2021/04/07 02:57:13;;;;;;;77.10;27.15;;;;;;;4.20;75.49;98600.56;5048387;28;20035;-23
2021/04/07 02:59:39;;;;;;;54.92;26.15;;;;;;;4.14;75.13;98580.31;5048403;28;20027;-23
2021/04/07 03:02:06;;;;;;;57.33;27.65;;;;;;;4.75;73.35;98579.63;5048557;28;20061;-22
2021/04/07 03:04:33;;;;;;;52.00;26.77;;;;;;;4.87;71.90;98573.63;5048010;28;20033;-22
2021/04/07 03:06:58;;;;;;;53.58;25.65;;;;;;;4.83;72.28;98584.63;5048267;28;20492;-23
2021/04/07 03:09:24;;;;;;;53.85;25.27;;;;;;;3.92;74.57;98579.84;5048458;28;20075;-23
2021/04/07 03:11:49;;;;;;;52.90;25.75;;;;;;;3.46;75.92;98565.06;5048197;28;20036;-23
2021/04/07 03:14:15;;;;;;;55.83;26.35;;;;;;;3.76;74.80;98583.75;5047927;28;20080;-23
2021/04/07 03:16:40;;;;;;;52.60;27.23;;;;;;;3.69;75.41;98596.19;5030405;28;20025;-23
2021/04/07 03:19:06;;;;;;;46.80;25.33;;;;;;;3.70;74.41;98600.44;5047873;28;20119;-23
2021/04/07 03:21:31;;;;;;;62.33;26.92;;;;;;;3.76;75.41;98574.06;5048244;28;20045;-22
2021/04/07 03:23:57;;;;;;;56.40;26.45;;;;;;;3.98;74.41;98603.56;5048276;28;20071;-23
2021/04/07 03:26:23;;;;;;;65.53;27.90;;;;;;;3.66;74.83;98588.69;5048208;28;20382;-23
2021/04/07 03:28:48;;;;;;;60.72;28.48;;;;;;;3.59;75.51;98592.16;5047591;28;20413;-22
2021/04/07 03:31:14;;;;;;;59.25;28.80;;;;;;;3.34;76.05;98581.53;5029968;28;20029;-24
2021/04/07 03:33:39;;;;;;;81.03;29.17;;;;;;;3.37;77.14;98593.47;5047680;28;20501;-23
2021/04/07 03:36:06;;;;;;;61.53;31.50;;;;;;;3.98;75.42;98587.72;5047741;28;20441;-23
2021/04/07 03:38:31;;;;;;;64.63;32.85;;;;;;;3.31;76.78;98594.31;5048104;28;20032;-23
2021/04/07 03:40:57;;;;;;;92.00;30.77;;;;;;;3.79;76.35;98588.63;5047546;28;20029;-22
2021/04/07 03:43:23;;;;;;;109.80;34.90;;;;;;;3.88;75.78;98592.63;5047537;28;20029;-22
2021/04/07 03:45:53;;;;;;;81.07;37.70;;;;;;;4.19;74.15;98599.75;5047518;28;20029;-22
2021/04/07 03:48:29;;;;;;;72.13;34.70;;;;;;;4.13;72.41;98589.25;5030200;28;20040;-23
2021/04/07 03:50:54;;;;;;;81.80;38.13;;;;;;;4.14;73.00;98606.69;5047329;28;20056;-23
2021/04/07 03:53:20;;;;;;;74.20;43.05;;;;;;;4.55;71.42;98605.38;5047392;28;20028;-23
2021/04/07 03:55:47;;;;;;;110.18;53.08;;;;;;;4.33;71.56;98605.75;5029782;28;20028;-23
2021/04/07 03:58:12;;;;;;;109.97;59.75;;;;;;;3.85;73.04;98595.69;5047136;28;20032;-23
2021/04/07 04:00:38;;;;;;;124.45;57.72;;;;;;;4.05;72.66;98607.97;5047421;28;20029;-23
2021/04/07 04:03:04;;;;;;;89.97;44.97;;;;;;;3.63;74.34;98606.53;5047205;28;20028;-23
2021/04/07 04:05:30;;;;;;;102.68;44.67;;;;;;;3.59;75.38;98600.06;5047578;28;20396;-23
2021/04/07 04:07:55;;;;;;;93.15;41.50;;;;;;;3.80;75.11;98635.06;5047096;28;20477;-23
2021/04/07 04:10:21;;;;;;;82.75;36.35;;;;;;;3.52;75.94;98601.13;5047105;28;20437;-23
2021/04/07 04:12:46;;;;;;;74.80;34.20;;;;;;;3.39;78.12;98615.16;5047326;28;20531;-22
2021/04/07 04:15:12;;;;;;;86.28;30.80;;;;;;;3.52;78.60;98627.50;5047336;28;20021;-23
2021/04/07 04:17:39;;;;;;;96.85;29.90;;;;;;;3.63;78.53;98622.34;5047177;28;20028;-23
2021/04/07 04:20:05;;;;;;;141.15;32.13;;;;;;;4.05;77.43;98639.63;5047108;28;20116;-23
2021/04/07 04:22:31;;;;;;;68.88;31.40;;;;;;;3.97;77.96;98630.94;5046788;28;20826;-23
2021/04/07 04:24:57;;;;;;;86.60;30.50;;;;;;;3.91;77.89;98618.59;5047379;28;20108;-24
2021/04/07 04:27:22;;;;;;;98.45;32.80;;;;;;;4.58;76.71;98644.56;5046993;28;20032;-23
2021/04/07 04:29:48;;;;;;;118.35;37.20;;;;;;;4.58;75.46;98657.78;5046927;28;20108;-21
2021/04/07 04:32:13;;;;;;;92.53;36.95;;;;;;;5.11;74.20;98659.97;5047392;28;20386;-23
2021/04/07 04:34:39;;;;;;;65.55;31.40;;;;;;;4.74;74.93;98665.16;5047011;28;20590;-23
2021/04/07 04:37:04;;;;;;;60.30;27.48;;;;;;;5.07;73.58;98669.34;5047022;28;20107;-23
2021/04/07 04:39:30;;;;;;;56.00;24.95;;;;;;;4.65;74.62;98663.78;5046843;28;20144;-23
2021/04/07 04:41:55;;;;;;;96.60;43.53;;;;;;;4.95;74.44;98660.53;5046829;28;20044;-23
2021/04/07 04:44:21;;;;;;;85.30;32.60;;;;;;;5.29;74.05;98671.56;5046787;28;20025;-23
2021/04/07 04:46:46;;;;;;;79.38;31.15;;;;;;;5.39;72.91;98663.94;5046768;28;20048;-23
2021/04/07 04:49:13;;;;;;;82.22;36.67;;;;;;;5.94;71.59;98655.97;5046558;28;20084;-23
2021/04/07 04:51:38;;;;;;;89.47;36.92;;;;;;;5.70;71.42;98665.66;5046649;28;20087;-22
2021/04/07 04:54:04;;;;;;;76.03;37.17;;;;;;;5.46;74.15;98662.06;5047079;28;20028;-22
2021/04/07 04:56:30;;;;;;;67.45;35.35;;;;;;;5.27;74.48;98655.97;5046854;28;20033;-23
2021/04/07 04:58:55;;;;;;;61.25;31.40;;;;;;;4.94;76.16;98641.19;5028883;28;20032;-23
2021/04/07 05:01:21;;;;;;;50.10;26.58;;;;;;;5.00;76.89;98637.69;5046632;28;20037;-22
2021/04/07 05:03:46;;;;;;;68.80;38.08;;;;;;;5.41;75.54;98630.16;5050388;28;20031;-23
2021/04/07 05:06:12;;;;;;;124.70;61.53;;;;;;;5.73;75.51;98635.31;5050264;28;20115;-22
2021/04/07 05:08:37;;;;;;;117.45;49.40;;;;;;;5.48;77.30;98636.22;5050716;28;20381;-22
2021/04/07 05:11:03;;;;;;;107.90;41.72;;;;;;;5.40;77.69;98631.22;5050713;28;20792;-23
2021/04/07 05:13:29;;;;;;;74.57;34.08;;;;;;;5.48;77.60;98623.00;5050523;28;20484;-23
2021/04/07 05:15:54;;;;;;;69.15;34.20;;;;;;;6.06;76.53;98640.19;5050388;28;20052;-23
2021/04/07 05:18:21;;;;;;;81.82;42.17;;;;;;;6.32;75.25;98654.91;5049947;28;20078;-23
2021/04/07 05:20:47;;;;;;;69.30;40.67;;;;;;;6.32;74.68;98639.03;5050143;28;20029;-23
2021/04/07 05:23:12;;;;;;;78.88;41.97;;;;;;;6.42;75.11;98633.97;5050220;28;20049;-23
2021/04/07 05:25:38;;;;;;;78.78;43.13;;;;;;;6.63;74.61;98642.44;5032253;28;20029;-23
2021/04/07 05:28:07;;;;;;;76.38;39.53;;;;;;;6.84;74.35;98644.53;5050123;28;20028;-22
2021/04/07 05:33:18;;;;;;;75.97;39.92;;;;;;;7.30;71.79;98626.19;5050163;28;20039;-22
2021/04/07 05:35:44;;;;;;;91.60;53.47;;;;;;;7.11;73.27;98646.75;5050151;28;20044;-22
2021/04/07 05:38:09;;;;;;;90.30;45.47;;;;;;;6.84;75.01;98641.91;5050115;28;20025;-22
2021/04/07 05:40:35;;;;;;;107.57;54.70;;;;;;;7.07;75.67;98628.84;5050023;28;20033;-23
2021/04/07 05:43:02;;;;;;;86.50;42.63;;;;;;;7.17;75.29;98645.81;5049830;28;20025;-23
2021/04/07 05:45:27;;;;;;;49.97;28.20;;;;;;;7.65;72.58;98642.03;5049797;28;20104;-23
2021/04/07 05:47:53;;;;;;;39.85;24.10;;;;;;;7.84;71.45;98628.59;5049549;28;20560;-23
2021/04/07 05:50:19;;;;;;;45.05;26.27;;;;;;;8.39;69.87;98662.53;5049267;28;20059;-22
2021/04/07 05:52:44;;;;;;;49.30;29.02;;;;;;;8.33;70.75;98642.25;5049785;28;20469;-21
2021/04/07 05:55:11;;;;;;;58.88;33.42;;;;;;;8.29;72.54;98649.06;5049951;28;20091;-22
2021/04/07 05:57:37;;;;;;;56.47;31.52;;;;;;;8.08;73.54;98671.00;5049840;28;20057;-23
2021/04/07 06:00:03;;;;;;;46.65;28.10;;;;;;;8.43;73.06;98684.97;5031846;28;20134;-23
2021/04/07 06:02:28;;;;;;;49.90;29.05;;;;;;;8.15;73.99;98687.59;5049366;28;20025;-23
2021/04/07 06:04:54;;;;;;;60.40;43.15;;;;;;;8.58;72.89;98670.31;5049548;28;20504;-22
2021/04/07 06:07:19;;;;;;;50.90;32.33;;;;;;;8.88;72.98;98674.53;5049450;28;20027;-22
2021/04/07 06:09:45;;;;;;;55.83;33.65;;;;;;;9.24;71.70;98679.34;5049306;28;20419;-22
2021/04/07 06:12:10;;;;;;;56.20;32.88;;;;;;;9.07;71.39;98675.91;5048981;28;20032;-22
2021/04/07 06:14:36;;;;;;;58.90;33.95;;;;;;;8.90;73.07;98704.34;5048005;28;20033;-22
2021/04/07 06:17:01;;;;;;;54.03;30.38;;;;;;;9.48;71.69;98692.47;5049311;28;20025;-21
2021/04/07 06:19:27;;;;;;;54.30;34.22;;;;;;;9.69;71.43;98684.75;5049487;28;20033;-23
2021/04/07 06:21:52;;;;;;;62.90;38.33;;;;;;;10.00;71.23;98685.94;5049283;28;20024;-23
2021/04/07 06:24:18;;;;;;;58.47;34.85;;;;;;;10.22;70.11;98696.56;5048943;28;20036;-22
2021/04/07 06:26:43;;;;;;;78.10;61.88;;;;;;;10.48;69.85;98692.31;5048982;28;20044;-23
2021/04/07 06:29:09;;;;;;;53.58;30.38;;;;;;;10.44;69.58;98708.03;5048977;28;20068;-22
2021/04/07 06:31:35;;;;;;;45.88;28.33;;;;;;;10.50;69.11;98700.06;5048903;28;20035;-22
2021/04/07 06:34:00;;;;;;;49.72;29.85;;;;;;;10.87;67.96;98694.81;5031664;28;20036;-22
2021/04/07 06:36:26;;;;;;;70.15;47.55;;;;;;;11.20;67.64;98693.72;5048797;28;20056;-22
2021/04/07 06:38:51;;;;;;;47.63;28.50;;;;;;;10.35;70.06;98692.72;5048671;28;20036;-23
2021/04/07 06:41:17;;;;;;;46.40;29.30;;;;;;;10.71;69.77;98723.22;5048493;28;20025;-23
2021/04/07 06:43:43;;;;;;;61.20;45.35;;;;;;;11.20;67.82;98717.75;5048796;28;20048;-22
2021/04/07 06:46:10;;;;;;;47.08;30.17;;;;;;;11.46;67.17;98699.22;5030656;28;20453;-22
2021/04/07 06:48:36;;;;;;;43.05;28.00;;;;;;;11.50;66.84;98719.00;5048473;28;20539;-23
2021/04/07 06:51:02;;;;;;;43.78;27.42;;;;;;;11.89;66.59;98723.25;5048356;28;20424;-26
2021/04/07 06:53:28;;;;;;;47.40;28.60;;;;;;;11.86;67.52;98716.53;5030801;28;20036;-23
2021/04/07 06:55:54;;;;;;;51.50;31.85;;;;;;;11.96;68.05;98732.63;5048605;28;20072;-22
2021/04/07 06:58:19;;;;;;;46.42;28.50;;;;;;;11.60;68.00;98740.41;5048265;28;20079;-21
2021/04/07 07:00:45;;;;;;;47.40;30.30;;;;;;;11.37;69.04;98735.47;5048730;28;20087;-22
2021/04/07 07:03:15;;;;;;;52.65;33.55;;;;;;;10.98;71.19;98743.72;5048523;28;20159;-23
2021/04/07 07:05:48;;;;;;;47.33;30.15;;;;;;;10.40;72.70;98762.88;5048466;28;20045;-22
2021/04/07 07:08:15;;;;;;;50.33;31.88;;;;;;;10.39;73.22;98747.94;5047913;28;20025;-22
2021/04/07 07:10:45;;;;;;;68.15;39.15;;;;;;;10.57;72.75;98767.31;5030408;28;20066;-22
2021/04/07 07:13:24;;;;;;;56.15;34.97;;;;;;;10.06;73.02;98773.63;5048148;28;20040;-23
2021/04/07 07:15:50;;;;;;;67.60;39.70;;;;;;;10.03;74.32;98752.81;5048121;28;20024;-21
2021/04/07 07:18:22;;;;;;;69.55;41.25;;;;;;;9.94;74.67;98772.94;5048047;28;20025;-21
2021/04/07 07:20:48;;;;;;;53.65;30.20;;;;;;;9.36;74.49;98772.38;5047802;28;20081;-23
2021/04/07 07:23:24;;;;;;;94.97;59.80;;;;;;;9.48;75.72;98801.56;5048006;28;20112;-22
2021/04/07 07:25:58;;;;;;;59.45;35.90;;;;;;;9.56;73.90;98811.81;5047547;28;20808;-22
2021/04/07 07:28:24;;;;;;;163.13;111.40;;;;;;;9.75;75.25;98815.03;5047748;28;20880;-22
2021/04/07 07:30:50;;;;;;;78.75;44.70;;;;;;;9.99;74.35;98825.44;5047967;28;20037;-23
2021/04/07 07:33:20;;;;;;;80.25;42.05;;;;;;;9.41;74.50;98822.19;5047717;28;20033;-23
2021/04/07 07:35:48;;;;;;;96.45;44.47;;;;;;;9.13;75.68;98825.72;5047982;28;20061;-22
2021/04/07 07:38:26;;;;;;;97.70;48.00;;;;;;;9.01;76.20;98855.03;5047439;28;20033;-22
2021/04/07 07:40:59;;;;;;;92.60;47.55;;;;;;;8.97;75.98;98864.53;5048040;28;20143;-23
2021/04/07 07:43:25;;;;;;;91.03;43.90;;;;;;;8.98;74.51;98872.28;5047546;28;20033;-23
2021/04/07 07:45:51;;;;;;;92.53;47.78;;;;;;;9.11;73.21;98873.03;5047484;28;20075;-22
2021/04/07 07:48:21;;;;;;;105.28;50.10;;;;;;;9.19;74.96;98869.97;5047035;28;20094;-23
2021/04/07 07:50:47;;;;;;;85.32;46.97;;;;;;;9.62;72.80;98872.06;5030232;28;20072;-23
2021/04/07 07:53:22;;;;;;;86.07;47.13;;;;;;;9.88;72.44;98887.63;5047474;28;20079;-23
2021/04/07 07:55:52;;;;;;;86.00;49.13;;;;;;;10.25;73.40;98886.03;5029736;28;20029;-23
2021/04/07 07:58:23;;;;;;;81.32;42.53;;;;;;;10.95;69.19;98882.91;5029183;28;20029;-22
2021/04/07 08:00:49;;;;;;;72.75;41.38;;;;;;;11.00;69.49;98877.66;5030676;28;20040;-22
2021/04/07 08:03:14;;;;;;;68.32;39.55;;;;;;;11.29;67.95;98872.06;5047242;28;20021;-22
2021/04/07 08:05:43;;;;;;;64.18;37.67;;;;;;;11.80;65.89;98877.84;5047392;28;20028;-22
2021/04/07 08:08:09;;;;;;;63.72;35.13;;;;;;;12.12;64.00;98869.00;5047082;28;20055;-23
2021/04/07 08:10:37;;;;;;;60.47;35.70;;;;;;;12.29;66.85;98874.97;5046996;28;20480;-23
2021/04/07 08:13:03;;;;;;;47.70;28.83;;;;;;;12.42;64.90;98871.00;5047261;28;20031;-23
2021/04/07 08:15:30;;;;;;;46.35;27.00;;;;;;;12.35;64.54;98873.94;5050265;28;20029;-23
2021/04/07 08:17:56;;;;;;;51.25;29.63;;;;;;;12.80;65.02;98869.84;5053100;28;20035;-23
2021/04/07 08:20:22;;;;;;;54.70;31.60;;;;;;;12.32;65.29;98863.78;5060749;28;20488;-23
2021/04/07 08:22:47;;;;;;;43.88;27.20;;;;;;;12.54;65.59;98886.84;5032442;28;20071;-23
2021/04/07 08:25:13;;;;;;;39.30;24.23;;;;;;;12.33;65.76;98870.72;5038036;28;20477;-22
2021/04/07 08:27:39;;;;;;;39.38;26.13;;;;;;;12.44;65.11;98909.81;5046800;28;20097;-23
2021/04/07 08:30:05;;;;;;;39.17;25.63;;;;;;;12.30;65.31;98889.97;5012431;28;20028;-23
2021/04/07 08:32:31;;;;;;;40.30;25.90;;;;;;;12.68;65.74;98908.59;5054980;28;20080;-22
2021/04/07 08:34:56;;;;;;;39.53;26.20;;;;;;;12.64;65.37;98908.28;5039748;28;20056;-22
2021/04/07 08:37:26;;;;;;;33.10;22.00;;;;;;;12.85;64.15;98910.00;5022772;28;20094;-21
2021/04/07 08:39:51;;;;;;;28.55;18.20;;;;;;;12.45;64.68;98884.69;5059836;28;20039;-22
2021/04/07 08:42:17;;;;;;;25.13;16.83;;;;;;;12.56;63.52;98879.38;5066066;28;20475;-23
2021/04/07 08:44:45;;;;;;;24.05;16.35;;;;;;;12.98;63.05;98873.13;5064140;28;20500;-22
2021/04/07 08:47:28;;;;;;;24.90;17.25;;;;;;;13.52;61.48;98899.47;5050762;28;20037;-22
2021/04/07 08:50:04;;;;;;;24.13;16.00;;;;;;;13.38;60.75;98890.34;5049220;28;20143;-23
2021/04/07 08:52:30;;;;;;;16.05;9.93;;;;;;;13.10;57.96;98897.78;5070850;28;20028;-22
2021/04/07 08:54:59;;;;;;;16.52;10.15;;;;;;;12.99;60.21;98904.16;5070803;28;20060;-22
2021/04/07 08:57:32;;;;;;;14.38;10.20;;;;;;;13.03;58.01;98899.88;5070648;28;20028;-22
2021/04/07 08:59:58;;;;;;;18.33;12.05;;;;;;;12.84;58.14;98902.22;5071036;28;20139;-23
2021/04/07 09:02:24;;;;;;;18.90;11.70;;;;;;;13.06;56.73;98913.53;5070597;28;20025;-22
2021/04/07 09:05:02;;;;;;;16.45;11.10;;;;;;;12.51;62.01;98919.47;5070395;28;20090;-22
2021/04/07 09:07:38;;;;;;;;;;;;;;;12.39;60.73;98933.84;5070887;28;20116;-21
2021/04/07 09:10:11;;;;;;;15.05;9.77;;;;;;;12.55;60.10;98931.25;5070304;28;19923;-22
2021/04/07 09:12:36;;;;;;;16.42;9.73;;;;;;;12.59;59.96;98909.09;5070402;28;20082;-22
2021/04/07 09:15:24;;;;;;;16.80;11.05;;;;;;;12.74;60.88;98932.41;5035971;28;20119;-21
2021/04/07 09:17:58;;;;;;;14.18;9.07;;;;;;;12.72;60.04;98929.19;5070525;28;20063;-22
2021/04/07 09:20:36;;;;;;;12.55;9.43;;;;;;;12.91;60.21;98934.09;5070406;28;20028;-21
2021/04/07 09:23:12;;;;;;;14.70;8.73;;;;;;;13.25;59.30;98908.50;5070378;28;20031;-22
2021/04/07 09:25:38;;;;;;;12.48;8.43;;;;;;;13.74;58.95;98942.06;5070221;28;20033;-22
2021/04/07 09:28:07;;;;;;;13.65;8.02;;;;;;;14.32;54.22;98941.78;5070030;28;20024;-22
2021/04/07 09:30:46;;;;;;;12.38;7.10;;;;;;;13.53;56.49;98930.56;5070537;28;20033;-22
2021/04/07 09:33:13;;;;;;;10.52;5.88;;;;;;;13.08;55.86;98918.66;5070008;28;20028;-22
2021/04/07 09:35:50;;;;;;;9.20;5.72;;;;;;;13.12;54.25;98941.13;5070183;28;20028;-22
2021/04/07 09:38:15;;;;;;;8.60;5.40;;;;;;;13.38;55.21;98927.84;5054208;28;20102;-20
2021/04/07 09:40:41;;;;;;;7.65;4.70;;;;;;;13.77;52.61;98935.38;5070186;28;20029;-21
2021/04/07 09:43:06;;;;;;;7.18;4.63;;;;;;;13.48;52.98;98929.72;5069975;28;20040;-22
2021/04/07 09:45:32;;;;;;;8.05;4.75;;;;;;;13.56;54.51;98945.28;5069944;28;20029;-22
2021/04/07 09:47:59;;;;;;;7.28;4.63;;;;;;;14.26;52.36;98932.97;5069595;28;20098;-22
2021/04/07 09:50:28;;;;;;;8.27;5.13;;;;;;;14.24;50.31;98939.63;5069362;28;20519;-21
2021/04/07 09:52:55;;;;;;;7.55;3.95;;;;;;;13.48;51.87;98943.91;5069653;28;20028;-22
2021/04/07 09:55:21;;;;;;;7.28;5.10;;;;;;;13.83;52.22;98929.78;5069721;28;20060;-21
2021/04/07 09:57:58;;;;;;;6.65;4.53;;;;;;;14.90;52.58;98956.69;5069592;28;20032;-22
2021/04/07 10:00:34;;;;;;;7.75;4.55;;;;;;;14.38;49.28;98951.41;5069380;28;20060;-23
2021/04/07 10:03:02;;;;;;;6.97;4.07;;;;;;;14.27;49.20;98960.56;5069717;28;20032;-20
2021/04/07 10:05:31;;;;;;;5.93;3.65;;;;;;;13.90;49.69;98945.56;5069266;28;20043;-23
2021/04/07 10:08:16;;;;;;;5.97;3.58;;;;;;;13.58;49.14;98946.59;5069284;28;20056;-22
2021/04/07 10:10:41;;;;;;;6.53;3.42;;;;;;;14.11;49.47;98953.63;5069223;28;20043;-20
2021/04/07 10:13:08;;;;;;;6.25;3.65;;;;;;;13.94;49.40;98961.94;5051793;28;20040;-22
2021/04/07 10:15:33;;;;;;;6.15;3.70;;;;;;;14.15;50.32;98943.97;5069499;28;20029;-22
2021/04/07 10:18:06;;;;;;;6.45;4.22;;;;;;;14.73;50.00;98970.41;5069091;28;20024;-22
2021/04/07 10:20:31;;;;;;;7.68;4.63;;;;;;;14.57;49.88;98959.75;5069064;28;20029;-22
2021/04/07 10:22:57;;;;;;;5.72;3.60;;;;;;;13.43;49.80;98971.50;5069586;28;20097;-21
2021/04/07 10:25:23;;;;;;;6.28;3.83;;;;;;;13.48;51.88;98969.91;5069490;28;20044;-22
2021/04/07 10:27:49;;;;;;;7.20;4.13;;;;;;;13.08;49.84;98956.13;5051193;28;20025;-22
2021/04/07 10:30:18;;;;;;;7.43;3.88;;;;;;;12.93;51.76;98958.72;5068786;28;20074;-22
2021/04/07 10:32:48;;;;;;;7.30;3.85;;;;;;;13.32;51.71;98972.56;5069141;28;20021;-24
2021/04/07 10:35:21;;;;;;;7.95;4.40;;;;;;;13.21;50.34;98960.97;5068784;28;20033;-22
2021/04/07 10:37:56;;;;;;;4.57;2.78;;;;;;;12.84;49.65;98964.56;5069139;28;20032;-21
2021/04/07 10:40:26;;;;;;;4.60;2.78;;;;;;;12.60;50.89;99000.81;5068823;28;20519;-22
2021/04/07 10:42:52;;;;;;;6.07;3.25;;;;;;;12.19;51.96;99001.31;5069139;28;20131;-22
2021/04/07 10:45:18;;;;;;;6.10;3.25;;;;;;;11.85;54.03;98987.41;5068849;28;20139;-23
2021/04/07 10:47:44;;;;;;;5.90;3.53;;;;;;;11.90;53.97;98998.16;5068481;28;20024;-21
2021/04/07 10:50:10;;;;;;;5.35;3.40;;;;;;;11.71;53.12;98986.19;5068029;28;20508;-21
2021/04/07 10:52:37;;;;;;;4.80;3.08;;;;;;;11.59;53.94;99015.72;5068658;28;20048;-22
2021/04/07 10:55:23;;;;;;;7.90;4.00;;;;;;;11.67;54.57;99023.28;5068587;28;20087;-22
2021/04/07 10:57:52;;;;;;;6.75;3.45;;;;;;;11.57;55.21;99010.63;5068509;28;20024;-22
2021/04/07 11:00:27;;;;;;;;;;;;;;;11.70;53.37;99032.66;5067956;28;20032;-23
2021/04/07 11:02:53;;;;;;;5.38;3.00;;;;;;;11.31;55.08;99030.88;5068481;28;19971;-22
2021/04/07 11:05:22;;;;;;;5.30;2.85;;;;;;;11.13;56.10;99040.00;5068420;28;20544;-22
2021/04/07 11:08:02;;;;;;;5.57;3.00;;;;;;;11.23;53.92;99024.13;5050228;28;20583;-22
2021/04/07 11:10:27;;;;;;;4.78;2.83;;;;;;;11.21;54.80;99044.91;5067933;28;20029;-22
2021/04/07 11:12:53;;;;;;;6.10;2.75;;;;;;;10.98;55.75;99064.63;5033548;28;20043;-22
2021/04/07 11:15:19;;;;;;;5.95;3.10;;;;;;;10.60;57.63;99052.06;5050396;28;20459;-22
2021/04/07 11:17:51;;;;;;;4.88;3.00;;;;;;;10.51;57.41;99042.88;5050304;28;20465;-22
2021/04/07 11:20:17;;;;;;;4.15;2.70;;;;;;;10.56;56.30;99056.28;5067810;28;20051;-23
2021/04/07 11:22:43;;;;;;;5.20;2.80;;;;;;;10.22;56.56;99065.03;5068115;28;20037;-22
2021/04/07 11:25:09;;;;;;;4.78;2.65;;;;;;;10.15;57.76;99077.69;5067918;28;20024;-22
2021/04/07 11:27:37;;;;;;;6.45;3.67;;;;;;;10.26;57.24;99084.84;5049611;28;20043;-22